createdAt,value
2019-01-22T00:00:52.137Z,13.60
2019-01-22T00:02:44.992Z,12.30
2019-01-22T00:03:44.869Z,11.00
2019-01-22T00:05:37.742Z,11.20
2019-01-22T00:06:37.613Z,10.60
2019-01-22T00:08:30.511Z,11.00
2019-01-22T00:09:30.395Z,11.00
2019-01-22T00:11:23.245Z,11.10
2019-01-22T00:12:23.137Z,12.10
2019-01-22T00:14:15.988Z,11.60
2019-01-22T00:15:15.867Z,11.20
2019-01-22T00:17:08.753Z,10.70
2019-01-22T00:18:08.618Z,10.10
2019-01-22T00:20:01.491Z,10.00
2019-01-22T00:21:01.352Z,10.20
2019-01-22T00:22:54.368Z,11.50
2019-01-22T00:23:54.209Z,11.20
2019-01-22T00:25:47.086Z,12.10
2019-01-22T00:26:46.963Z,12.70
2019-01-22T00:28:39.856Z,12.80
2019-01-22T00:29:39.705Z,12.80
2019-01-22T00:31:33.063Z,13.00
2019-01-22T00:32:32.456Z,12.80
2019-01-22T00:34:25.346Z,13.90
2019-01-22T00:35:25.222Z,13.40
2019-01-22T00:37:18.107Z,13.90
2019-01-22T00:38:17.966Z,14.70
2019-01-22T00:40:10.854Z,14.90
2019-01-22T00:41:10.728Z,15.60
2019-01-22T00:43:04.087Z,15.50
2019-01-22T00:44:03.463Z,15.40
2019-01-22T00:45:56.339Z,15.60
2019-01-22T00:46:56.205Z,15.50
2019-01-22T00:48:49.198Z,15.00
2019-01-22T00:49:49.057Z,15.30
2019-01-22T00:51:41.978Z,15.60
2019-01-22T00:52:41.825Z,16.20
2019-01-22T00:54:34.714Z,15.20
2019-01-22T00:55:34.572Z,14.80
2019-01-22T00:57:27.445Z,15.10
2019-01-22T00:58:27.308Z,14.50
2019-01-22T01:00:20.096Z,14.00
2019-01-22T01:01:19.963Z,16.00
2019-01-22T01:03:12.853Z,15.60
2019-01-22T01:04:12.714Z,15.50
2019-01-22T01:06:05.498Z,15.50
2019-01-22T01:07:05.357Z,15.60
2019-01-22T01:08:58.137Z,15.50
2019-01-22T01:09:58.007Z,16.40
2019-01-22T01:11:50.870Z,16.00
2019-01-22T01:12:50.765Z,15.50
2019-01-22T01:14:43.520Z,15.30
2019-01-22T01:15:43.398Z,15.30
2019-01-22T01:17:36.270Z,13.40
2019-01-22T01:18:36.148Z,13.70
2019-01-22T01:20:29.031Z,13.90
2019-01-22T01:21:28.920Z,14.30
2019-01-22T01:23:21.781Z,14.30
2019-01-22T01:24:21.639Z,14.40
2019-01-22T01:26:14.443Z,14.30
2019-01-22T01:27:14.302Z,14.50
2019-01-22T01:29:07.072Z,15.10
2019-01-22T01:30:06.942Z,15.00
2019-01-22T01:31:59.743Z,14.90
2019-01-22T01:33:00.184Z,15.60
2019-01-22T01:34:52.393Z,15.70
2019-01-22T01:35:52.233Z,15.10
2019-01-22T01:37:45.024Z,15.40
2019-01-22T01:38:44.884Z,15.40
2019-01-22T01:40:37.770Z,15.60
2019-01-22T01:41:37.627Z,15.70
2019-01-22T01:43:30.633Z,15.00
2019-01-22T01:44:30.490Z,14.60
2019-01-22T01:46:23.375Z,15.10
2019-01-22T01:47:23.226Z,14.40
2019-01-22T01:49:16.018Z,16.40
2019-01-22T01:50:15.889Z,15.40
2019-01-22T01:52:08.862Z,15.80
2019-01-22T01:53:08.731Z,16.70
2019-01-22T01:55:01.514Z,16.40
2019-01-22T01:56:01.380Z,16.20
2019-01-22T01:57:54.285Z,15.80
2019-01-22T01:58:54.118Z,16.00
2019-01-22T02:00:46.916Z,16.60
2019-01-22T02:01:46.774Z,16.50
2019-01-22T02:03:40.070Z,15.10
2019-01-22T02:04:39.932Z,16.30
2019-01-22T02:06:32.735Z,17.10
2019-01-22T02:07:32.605Z,16.20
2019-01-22T02:09:25.385Z,16.30
2019-01-22T02:10:25.259Z,16.00
2019-01-22T02:12:18.111Z,16.30
2019-01-22T02:13:17.971Z,16.00
2019-01-22T02:15:10.775Z,15.60
2019-01-22T02:16:10.623Z,16.60
2019-01-22T02:18:03.928Z,16.60
2019-01-22T02:19:03.783Z,16.40
2019-01-22T02:20:56.568Z,16.70
2019-01-22T02:21:56.440Z,16.20
2019-01-22T02:23:49.233Z,16.50
2019-01-22T02:24:49.096Z,16.10
2019-01-22T02:26:41.885Z,16.10
2019-01-22T02:27:41.735Z,16.40
2019-01-22T02:29:34.527Z,15.80
2019-01-22T02:30:34.387Z,15.40
2019-01-22T02:32:27.808Z,15.00
2019-01-22T02:33:27.042Z,14.80
2019-01-22T02:35:19.814Z,15.50
2019-01-22T02:36:19.681Z,15.30
2019-01-22T02:38:12.463Z,15.30
2019-01-22T02:39:12.345Z,15.50
2019-01-22T02:41:05.093Z,14.90
2019-01-22T02:42:04.964Z,15.00
2019-01-22T02:43:57.843Z,15.60
2019-01-22T02:44:57.726Z,15.20
2019-01-22T02:46:51.003Z,15.00
2019-01-22T02:47:50.867Z,15.50
2019-01-22T02:49:43.649Z,15.20
2019-01-22T02:50:43.521Z,14.70
2019-01-22T02:52:36.297Z,15.10
2019-01-22T02:53:38.782Z,15.30
2019-01-22T02:55:29.004Z,14.50
2019-01-22T02:56:28.832Z,14.50
2019-01-22T02:58:21.644Z,15.30
2019-01-22T02:59:21.479Z,15.20
2019-01-22T03:01:14.369Z,15.00
2019-01-22T03:02:14.215Z,14.80
2019-01-22T03:04:06.998Z,15.40
2019-01-22T03:05:06.854Z,15.90
2019-01-22T03:07:00.743Z,15.10
2019-01-22T03:07:59.509Z,15.00
2019-01-22T03:09:52.283Z,15.30
2019-01-22T03:10:52.166Z,15.40
2019-01-22T03:12:44.953Z,16.20
2019-01-22T03:13:44.803Z,15.80
2019-01-22T03:15:37.576Z,14.80
2019-01-22T03:16:37.454Z,15.20
2019-01-22T03:18:30.227Z,15.20
2019-01-22T03:19:30.109Z,15.30
2019-01-22T03:21:22.878Z,16.20
2019-01-22T03:22:22.745Z,15.80
2019-01-22T03:24:15.535Z,15.80
2019-01-22T03:25:15.412Z,16.70
2019-01-22T03:27:08.189Z,15.50
2019-01-22T03:28:08.037Z,15.80
2019-01-22T03:30:00.805Z,15.50
2019-01-22T03:31:00.681Z,15.70
2019-01-22T03:32:53.460Z,15.40
2019-01-22T03:33:53.331Z,15.70
2019-01-22T03:35:46.127Z,15.80
2019-01-22T03:36:45.971Z,16.20
2019-01-22T03:38:38.855Z,16.10
2019-01-22T03:39:38.728Z,16.20
2019-01-22T03:41:31.615Z,16.20
2019-01-22T03:42:31.481Z,16.30
2019-01-22T03:44:24.292Z,16.00
2019-01-22T03:45:24.122Z,16.00
2019-01-22T03:47:16.894Z,16.30
2019-01-22T03:48:16.775Z,16.30
2019-01-22T03:50:09.658Z,16.30
2019-01-22T03:51:09.538Z,16.70
2019-01-22T03:53:02.306Z,16.80
2019-01-22T03:54:02.172Z,16.70
2019-01-22T03:55:54.955Z,17.10
2019-01-22T03:56:54.839Z,16.30
2019-01-22T03:58:47.606Z,17.20
2019-01-22T03:59:47.481Z,17.80
2019-01-22T04:01:40.368Z,17.90
2019-01-22T04:02:40.277Z,16.60
2019-01-22T04:04:33.001Z,17.30
2019-01-22T04:05:32.871Z,16.80
2019-01-22T04:07:25.754Z,17.30
2019-01-22T04:08:25.608Z,16.80
2019-01-22T04:10:18.415Z,17.20
2019-01-22T04:11:18.257Z,17.30
2019-01-22T04:13:11.135Z,17.20
2019-01-22T04:14:11.005Z,18.00
2019-01-22T04:16:03.802Z,18.90
2019-01-22T04:17:03.696Z,19.30
2019-01-22T04:18:56.538Z,18.50
2019-01-22T04:19:56.403Z,18.10
2019-01-22T04:21:49.214Z,21.00
2019-01-22T04:22:49.047Z,19.00
2019-01-22T04:24:41.827Z,19.30
2019-01-22T04:25:41.710Z,18.70
2019-01-22T04:27:35.594Z,18.70
2019-01-22T04:28:35.466Z,18.50
2019-01-22T04:30:28.355Z,17.80
2019-01-22T04:31:28.230Z,17.70
2019-01-22T04:33:21.029Z,18.80
2019-01-22T04:34:20.864Z,18.10
2019-01-22T04:36:13.749Z,18.00
2019-01-22T04:37:13.620Z,18.40
2019-01-22T04:39:07.157Z,18.80
2019-01-22T04:40:06.280Z,17.80
2019-01-22T04:41:59.061Z,18.00
2019-01-22T04:42:58.913Z,18.20
2019-01-22T04:44:51.696Z,18.70
2019-01-22T04:45:51.562Z,18.30
2019-01-22T04:47:44.441Z,18.20
2019-01-22T04:48:44.322Z,17.70
2019-01-22T04:50:37.108Z,16.50
2019-01-22T04:51:36.950Z,16.60
2019-01-22T04:53:29.947Z,18.10
2019-01-22T04:54:29.800Z,17.00
2019-01-22T04:56:22.583Z,17.60
2019-01-22T04:57:22.455Z,17.30
2019-01-22T04:59:15.248Z,16.90
2019-01-22T05:00:15.112Z,17.50
2019-01-22T05:02:07.981Z,17.40
2019-01-22T05:03:07.842Z,18.20
2019-01-22T05:05:00.626Z,17.70
2019-01-22T05:06:00.503Z,17.40
2019-01-22T05:07:53.385Z,18.00
2019-01-22T05:08:53.261Z,17.80
2019-01-22T05:10:46.027Z,17.50
2019-01-22T05:11:45.889Z,16.80
2019-01-22T05:13:38.669Z,18.10
2019-01-22T05:14:38.534Z,17.90
2019-01-22T05:16:31.415Z,16.60
2019-01-22T05:17:31.288Z,17.50
2019-01-22T05:19:24.074Z,17.80
2019-01-22T05:20:23.932Z,17.40
2019-01-22T05:22:16.727Z,17.70
2019-01-22T05:23:16.629Z,17.20
2019-01-22T05:25:09.476Z,17.70
2019-01-22T05:26:09.328Z,18.00
2019-01-22T05:28:02.114Z,18.30
2019-01-22T05:29:01.977Z,17.60
2019-01-22T05:30:54.842Z,17.70
2019-01-22T05:31:54.670Z,17.90
2019-01-22T05:33:47.511Z,19.10
2019-01-22T05:34:47.369Z,18.80
2019-01-22T05:36:40.166Z,19.50
2019-01-22T05:37:40.036Z,18.80
2019-01-22T05:39:32.930Z,19.20
2019-01-22T05:40:32.769Z,19.30
2019-01-22T05:42:25.553Z,19.40
2019-01-22T05:43:25.420Z,19.30
2019-01-22T05:45:18.326Z,19.30
2019-01-22T05:46:18.195Z,19.10
2019-01-22T05:48:13.435Z,19.60
2019-01-22T05:49:10.826Z,18.80
2019-01-22T05:51:03.706Z,19.20
2019-01-22T05:52:03.564Z,19.50
2019-01-22T05:53:56.440Z,19.80
2019-01-22T05:54:56.317Z,19.60
2019-01-22T05:56:49.114Z,19.70
2019-01-22T05:57:48.962Z,18.70
2019-01-22T05:59:41.862Z,18.90
2019-01-22T06:00:41.725Z,18.70
2019-01-22T06:02:34.597Z,19.70
2019-01-22T06:03:34.467Z,19.80
2019-01-22T06:05:27.346Z,20.30
2019-01-22T06:06:27.207Z,19.90
2019-01-22T06:08:19.993Z,20.20
2019-01-22T06:09:19.857Z,19.70
2019-01-22T06:11:12.743Z,18.60
2019-01-22T06:12:12.606Z,19.30
2019-01-22T06:14:05.389Z,20.00
2019-01-22T06:15:05.268Z,20.10
2019-01-22T06:16:58.052Z,18.00
2019-01-22T06:17:57.914Z,17.60
2019-01-22T06:19:50.812Z,17.80
2019-01-22T06:20:50.658Z,18.10
2019-01-22T06:22:43.538Z,17.30
2019-01-22T06:23:43.406Z,17.60
2019-01-22T06:25:36.271Z,17.20
2019-01-22T06:26:36.163Z,16.90
2019-01-22T06:28:29.036Z,17.20
2019-01-22T06:29:28.894Z,17.10
2019-01-22T06:31:21.807Z,16.80
2019-01-22T06:32:21.645Z,16.80
2019-01-22T06:34:14.544Z,16.40
2019-01-22T06:35:14.390Z,16.80
2019-01-22T06:37:07.285Z,16.70
2019-01-22T06:38:07.148Z,16.00
2019-01-22T06:40:00.037Z,15.40
2019-01-22T06:40:59.913Z,16.60
2019-01-22T06:42:52.772Z,15.20
2019-01-22T06:43:52.646Z,15.60
2019-01-22T06:45:45.419Z,15.80
2019-01-22T06:46:45.293Z,15.60
2019-01-22T06:48:38.173Z,15.40
2019-01-22T06:49:38.047Z,14.70
2019-01-22T06:51:30.921Z,15.30
2019-01-22T06:52:30.789Z,14.90
2019-01-22T06:54:23.670Z,14.40
2019-01-22T06:55:23.547Z,13.90
2019-01-22T06:57:16.440Z,14.10
2019-01-22T06:58:16.288Z,13.50
2019-01-22T07:00:09.182Z,13.60
2019-01-22T07:01:09.036Z,13.80
2019-01-22T07:03:01.932Z,14.00
2019-01-22T07:04:01.810Z,16.20
2019-01-22T07:05:54.688Z,15.90
2019-01-22T07:06:54.542Z,16.20
2019-01-22T07:08:47.459Z,15.20
2019-01-22T07:09:47.294Z,15.30
2019-01-22T07:11:40.179Z,15.70
2019-01-22T07:12:40.045Z,15.20
2019-01-22T07:14:32.917Z,14.50
2019-01-22T07:15:32.790Z,14.50
2019-01-22T07:17:25.676Z,13.80
2019-01-22T07:18:25.537Z,13.80
2019-01-22T07:20:18.428Z,14.70
2019-01-22T07:21:18.299Z,14.30
2019-01-22T07:23:11.179Z,14.80
2019-01-22T07:24:11.032Z,13.70
2019-01-22T07:26:03.928Z,12.20
2019-01-22T07:27:03.783Z,13.30
2019-01-22T07:28:56.672Z,13.20
2019-01-22T07:29:56.541Z,14.20
2019-01-22T07:31:49.440Z,13.30
2019-01-22T07:32:49.280Z,12.30
2019-01-22T07:34:42.180Z,11.40
2019-01-22T07:35:42.035Z,11.10
2019-01-22T07:37:34.927Z,12.00
2019-01-22T07:38:34.789Z,12.30
2019-01-22T07:40:27.664Z,14.00
2019-01-22T07:41:27.533Z,15.40
2019-01-22T07:43:20.427Z,15.20
2019-01-22T07:44:20.280Z,14.10
2019-01-22T07:46:13.192Z,12.00
2019-01-22T07:47:13.032Z,8.80
2019-01-22T07:49:05.921Z,12.80
2019-01-22T07:50:05.781Z,12.90
2019-01-22T07:51:58.659Z,13.30
2019-01-22T07:52:58.542Z,13.50
2019-01-22T07:54:53.955Z,14.80
2019-01-22T07:55:51.284Z,14.20
2019-01-22T07:57:58.331Z,14.50
2019-01-22T07:58:58.166Z,14.30
2019-01-22T08:00:51.554Z,14.90
2019-01-22T08:01:51.434Z,14.40
2019-01-22T08:03:44.839Z,14.60
2019-01-22T08:04:44.719Z,14.60
2019-01-22T08:06:39.009Z,14.40
2019-01-22T08:07:38.868Z,14.90
2019-01-22T08:09:42.811Z,14.60
2019-01-22T08:10:42.687Z,13.40
2019-01-22T08:12:43.059Z,14.90
2019-01-22T08:13:42.906Z,14.00
2019-01-22T08:16:09.387Z,12.60
2019-01-22T08:17:09.247Z,13.20
2019-01-22T08:19:05.093Z,15.60
2019-01-22T08:20:04.967Z,15.40
2019-01-22T08:21:58.270Z,12.70
2019-01-22T08:22:58.135Z,12.80
2019-01-22T08:24:52.445Z,12.10
2019-01-22T08:25:52.315Z,12.00
2019-01-22T08:27:45.181Z,12.70
2019-01-22T08:28:45.049Z,12.60
2019-01-22T08:30:37.958Z,13.20
2019-01-22T08:31:37.797Z,13.80
2019-01-22T08:33:30.692Z,13.10
2019-01-22T08:34:30.571Z,12.40
2019-01-22T08:36:23.452Z,12.80
2019-01-22T08:37:23.318Z,12.10
2019-01-22T08:39:16.192Z,12.50
2019-01-22T08:40:16.049Z,12.50
2019-01-22T08:42:08.942Z,12.50
2019-01-22T08:43:08.796Z,12.80
2019-01-22T08:45:01.703Z,12.30
2019-01-22T08:46:01.548Z,12.10
2019-01-22T08:47:54.442Z,11.50
2019-01-22T08:48:54.320Z,11.30
2019-01-22T08:50:47.230Z,11.40
2019-01-22T08:51:47.049Z,11.20
2019-01-22T08:53:40.342Z,12.20
2019-01-22T08:54:40.218Z,11.80
2019-01-22T08:56:33.094Z,12.20
2019-01-22T08:57:37.505Z,11.70
2019-01-22T08:59:25.867Z,11.30
2019-01-22T09:00:25.721Z,12.20
2019-01-22T09:02:18.585Z,11.60
2019-01-22T09:03:18.475Z,11.50
2019-01-22T09:05:11.345Z,11.50
2019-01-22T09:06:11.213Z,10.70
2019-01-22T09:08:04.092Z,10.20
2019-01-22T09:09:03.974Z,10.10
2019-01-22T09:10:57.504Z,9.80
2019-01-22T09:11:57.331Z,9.80
2019-01-22T09:13:50.197Z,9.70
2019-01-22T09:14:50.067Z,10.00
2019-01-22T09:16:42.973Z,9.60
2019-01-22T09:17:42.814Z,9.20
2019-01-22T09:19:35.704Z,9.40
2019-01-22T09:20:35.573Z,8.30
2019-01-22T09:22:28.443Z,9.00
2019-01-22T09:23:28.320Z,9.10
2019-01-22T09:25:21.252Z,8.50
2019-01-22T09:26:21.083Z,9.00
2019-01-22T09:28:13.978Z,8.80
2019-01-22T09:29:13.837Z,8.30
2019-01-22T09:31:06.725Z,8.50
2019-01-22T09:32:06.585Z,8.30
2019-01-22T09:33:59.457Z,8.40
2019-01-22T09:34:59.318Z,8.70
2019-01-22T09:36:52.211Z,7.70
2019-01-22T09:37:52.070Z,8.20
2019-01-22T09:39:44.998Z,8.40
2019-01-22T09:40:44.823Z,8.40
2019-01-22T09:42:37.804Z,8.20
2019-01-22T09:43:37.672Z,8.30
2019-01-22T09:45:30.651Z,8.90
2019-01-22T09:46:30.535Z,8.80
2019-01-22T09:48:23.413Z,9.80
2019-01-22T09:49:23.291Z,9.40
2019-01-22T09:51:16.169Z,8.70
2019-01-22T09:52:16.044Z,9.00
2019-01-22T09:54:09.472Z,8.90
2019-01-22T09:55:08.998Z,8.80
2019-01-22T09:57:01.748Z,9.10
2019-01-22T09:58:01.632Z,8.10
2019-01-22T09:59:55.374Z,8.00
2019-01-22T10:00:54.380Z,8.00
2019-01-22T10:02:47.263Z,8.00
2019-01-22T10:03:47.131Z,7.60
2019-01-22T10:05:40.019Z,7.50
2019-01-22T10:06:39.876Z,7.50
2019-01-22T10:08:32.784Z,8.00
2019-01-22T10:09:32.628Z,7.60
2019-01-22T10:11:25.509Z,7.80
2019-01-22T10:12:25.373Z,7.90
2019-01-22T10:14:18.273Z,7.60
2019-01-22T10:15:18.145Z,8.00
2019-01-22T10:17:11.014Z,8.50
2019-01-22T10:18:10.884Z,8.10
2019-01-22T10:20:03.788Z,8.20
2019-01-22T10:21:03.623Z,8.00
2019-01-22T10:22:56.514Z,9.30
2019-01-22T10:23:56.369Z,9.80
2019-01-22T10:25:49.272Z,9.90
2019-01-22T10:26:49.123Z,11.40
2019-01-22T10:28:42.009Z,10.20
2019-01-22T10:29:41.888Z,10.50
2019-01-22T10:31:34.747Z,11.00
2019-01-22T10:32:34.623Z,9.50
2019-01-22T10:34:27.516Z,8.00
2019-01-22T10:35:27.369Z,8.10
2019-01-22T10:37:20.272Z,9.90
2019-01-22T10:38:20.125Z,9.30
2019-01-22T10:40:13.015Z,10.30
2019-01-22T10:41:12.883Z,9.80
2019-01-22T10:43:09.320Z,9.20
2019-01-22T10:44:05.623Z,9.80
2019-01-22T10:45:58.540Z,10.00
2019-01-22T10:46:58.365Z,9.80
2019-01-22T10:48:51.282Z,10.80
2019-01-22T10:49:51.135Z,10.50
2019-01-22T10:51:44.011Z,9.30
2019-01-22T10:52:43.882Z,9.30
2019-01-22T10:54:36.742Z,10.00
2019-01-22T10:55:36.636Z,12.30
2019-01-22T10:57:29.510Z,12.00
2019-01-22T10:58:29.378Z,17.10
2019-01-22T11:00:22.371Z,12.30
2019-01-22T11:01:22.224Z,11.40
2019-01-22T11:03:15.109Z,9.80
2019-01-22T11:04:14.968Z,10.00
2019-01-22T11:06:07.871Z,9.40
2019-01-22T11:07:08.219Z,9.10
2019-01-22T11:09:00.615Z,9.20
2019-01-22T11:10:00.474Z,9.70
2019-01-22T11:11:53.359Z,9.70
2019-01-22T11:12:53.216Z,9.90
2019-01-22T11:14:46.123Z,10.40
2019-01-22T11:15:45.970Z,10.20
2019-01-22T11:17:38.868Z,10.00
2019-01-22T11:18:38.724Z,9.90
2019-01-22T11:20:32.215Z,9.70
2019-01-22T11:21:32.085Z,9.10
2019-01-22T11:23:24.963Z,9.00
2019-01-22T11:24:30.254Z,9.70
2019-01-22T11:26:17.712Z,9.40
2019-01-22T11:27:17.598Z,8.50
2019-01-22T11:29:10.464Z,9.00
2019-01-22T11:30:10.329Z,8.70
2019-01-22T11:32:03.227Z,8.80
2019-01-22T11:33:03.081Z,8.70
2019-01-22T11:34:55.983Z,9.00
2019-01-22T11:35:55.826Z,8.70
2019-01-22T11:37:48.756Z,8.00
2019-01-22T11:38:48.591Z,8.50
2019-01-22T11:40:41.472Z,8.80
2019-01-22T11:41:41.334Z,8.20
2019-01-22T11:43:34.232Z,8.10
2019-01-22T11:44:34.096Z,8.00
2019-01-22T11:46:26.958Z,8.70
2019-01-22T11:47:26.842Z,8.70
2019-01-22T11:49:23.330Z,8.10
2019-01-22T11:50:19.594Z,8.50
2019-01-22T11:52:12.471Z,7.60
2019-01-22T11:53:12.326Z,7.60
2019-01-22T11:55:05.230Z,7.70
2019-01-22T11:56:05.080Z,7.70
2019-01-22T11:57:57.950Z,7.90
2019-01-22T11:58:57.832Z,7.30
2019-01-22T12:00:50.810Z,7.00
2019-01-22T12:01:50.698Z,7.00
2019-01-22T12:03:43.587Z,6.90
2019-01-22T12:04:43.432Z,7.00
2019-01-22T12:06:36.327Z,7.20
2019-01-22T12:07:36.178Z,6.60
2019-01-22T12:09:29.068Z,6.90
2019-01-22T12:10:28.938Z,6.60
2019-01-22T12:12:22.032Z,6.60
2019-01-22T12:13:21.943Z,6.70
2019-01-22T12:15:14.557Z,6.20
2019-01-22T12:16:14.428Z,6.70
2019-01-22T12:18:07.329Z,6.90
2019-01-22T12:19:07.177Z,6.30
2019-01-22T12:21:00.079Z,5.50
2019-01-22T12:22:00.124Z,5.50
2019-01-22T12:23:52.817Z,5.70
2019-01-22T12:24:52.687Z,5.80
2019-01-22T12:26:45.560Z,6.20
2019-01-22T12:27:45.442Z,6.10
2019-01-22T12:29:38.338Z,5.60
2019-01-22T12:30:38.188Z,5.10
2019-01-22T12:32:31.066Z,5.60
2019-01-22T12:33:30.944Z,5.50
2019-01-22T12:35:23.810Z,5.40
2019-01-22T12:36:23.679Z,5.20
2019-01-22T12:38:16.548Z,4.90
2019-01-22T12:39:16.438Z,4.50
2019-01-22T12:41:09.305Z,4.80
2019-01-22T12:42:09.174Z,4.20
2019-01-22T12:44:02.088Z,4.30
2019-01-22T12:45:01.970Z,4.80
2019-01-22T12:46:54.805Z,5.20
2019-01-22T12:47:54.693Z,5.10
2019-01-22T12:49:47.560Z,4.50
2019-01-22T12:50:47.444Z,4.90
2019-01-22T12:52:40.324Z,4.60
2019-01-22T12:53:40.192Z,4.80
2019-01-22T12:55:33.073Z,4.40
2019-01-22T12:56:32.939Z,4.40
2019-01-22T12:58:25.816Z,4.60
2019-01-22T12:59:25.683Z,4.80
2019-01-22T13:01:18.553Z,4.20
2019-01-22T13:02:18.430Z,4.50
2019-01-22T13:04:11.307Z,4.30
2019-01-22T13:05:11.177Z,4.20
2019-01-22T13:07:04.049Z,3.90
2019-01-22T13:08:04.421Z,4.20
2019-01-22T13:09:56.828Z,4.00
2019-01-22T13:10:56.684Z,4.20
2019-01-22T13:12:49.551Z,3.90
2019-01-22T13:13:49.429Z,3.90
2019-01-22T13:15:42.302Z,3.50
2019-01-22T13:16:42.178Z,3.60
2019-01-22T13:18:35.064Z,3.70
2019-01-22T13:19:34.926Z,4.00
2019-01-22T13:21:27.823Z,3.70
2019-01-22T13:22:27.681Z,3.50
2019-01-22T13:24:21.619Z,3.90
2019-01-22T13:25:20.431Z,4.10
2019-01-22T13:27:13.292Z,3.80
2019-01-22T13:28:13.173Z,3.80
2019-01-22T13:30:06.064Z,3.90
2019-01-22T13:31:05.940Z,3.70
2019-01-22T13:32:58.810Z,4.00
2019-01-22T13:33:58.671Z,3.50
2019-01-22T13:35:52.170Z,3.60
2019-01-22T13:36:51.419Z,3.90
2019-01-22T13:38:44.302Z,3.50
2019-01-22T13:39:44.169Z,3.50
2019-01-22T13:41:37.057Z,3.60
2019-01-22T13:42:36.915Z,4.00
2019-01-22T13:44:29.812Z,4.10
2019-01-22T13:45:29.664Z,4.20
2019-01-22T13:47:22.560Z,4.20
2019-01-22T13:48:22.425Z,4.20
2019-01-22T13:50:15.302Z,3.90
2019-01-22T13:51:15.168Z,4.10
2019-01-22T13:53:08.148Z,4.20
2019-01-22T13:54:07.953Z,3.60
2019-01-22T13:56:00.920Z,4.40
2019-01-22T13:57:00.784Z,4.50
2019-01-22T13:58:53.651Z,4.20
2019-01-22T13:59:53.791Z,3.70
2019-01-22T14:01:46.401Z,4.00
2019-01-22T14:02:46.279Z,4.20
2019-01-22T14:04:39.660Z,4.20
2019-01-22T14:05:39.554Z,4.20
2019-01-22T14:07:32.426Z,4.20
2019-01-22T14:08:32.300Z,4.20
2019-01-22T14:10:25.161Z,4.20
2019-01-22T14:11:25.034Z,4.20
2019-01-22T14:13:18.028Z,4.70
2019-01-22T14:14:17.880Z,4.40
2019-01-22T14:16:10.781Z,6.30
2019-01-22T14:17:10.638Z,5.90
2019-01-22T14:19:03.511Z,6.30
2019-01-22T14:20:03.380Z,6.50
2019-01-22T14:21:56.272Z,6.50
2019-01-22T14:22:56.140Z,7.00
2019-01-22T14:24:49.028Z,7.40
2019-01-22T14:25:48.882Z,7.10
2019-01-22T14:27:41.759Z,7.70
2019-01-22T14:28:41.635Z,6.80
2019-01-22T14:30:34.527Z,6.90
2019-01-22T14:31:34.396Z,6.90
2019-01-22T14:33:27.252Z,6.80
2019-01-22T14:34:27.138Z,6.60
2019-01-22T14:36:20.025Z,7.60
2019-01-22T14:37:19.889Z,7.80
2019-01-22T14:39:12.815Z,7.80
2019-01-22T14:40:12.645Z,7.60
2019-01-22T14:42:05.516Z,7.60
2019-01-22T14:43:05.379Z,7.40
2019-01-22T14:44:58.260Z,8.10
2019-01-22T14:45:58.135Z,7.90
2019-01-22T14:47:51.042Z,8.40
2019-01-22T14:48:50.908Z,7.60
2019-01-22T14:50:43.768Z,7.90
2019-01-22T14:51:43.624Z,8.80
2019-01-22T14:53:36.419Z,8.20
2019-01-22T14:54:36.273Z,8.10
2019-01-22T14:56:32.639Z,8.40
2019-01-22T14:57:29.041Z,8.70
2019-01-22T14:59:21.802Z,8.60
2019-01-22T15:00:21.674Z,9.20
2019-01-22T15:02:14.448Z,9.70
2019-01-22T15:03:14.366Z,9.20
2019-01-22T15:05:07.112Z,9.20
2019-01-22T15:06:06.970Z,9.30
2019-01-22T15:07:59.768Z,9.10
2019-01-22T15:08:59.694Z,9.10
2019-01-22T15:10:52.388Z,8.60
2019-01-22T15:11:52.259Z,9.30
2019-01-22T15:13:45.045Z,9.00
2019-01-22T15:14:44.904Z,9.20
2019-01-22T15:16:38.310Z,8.90
2019-01-22T15:17:38.182Z,9.30
2019-01-22T15:19:31.058Z,9.20
2019-01-22T15:20:30.928Z,9.10
2019-01-22T15:22:23.692Z,9.30
2019-01-22T15:23:23.565Z,9.00
2019-01-22T15:25:16.361Z,9.30
2019-01-22T15:26:16.225Z,9.20
2019-01-22T15:28:09.083Z,9.90
2019-01-22T15:29:08.962Z,10.50
2019-01-22T15:31:02.301Z,11.90
2019-01-22T15:32:02.125Z,11.40
2019-01-22T15:33:54.892Z,12.60
2019-01-22T15:34:54.765Z,13.60
2019-01-22T15:36:47.555Z,9.80
2019-01-22T15:37:47.438Z,10.20
2019-01-22T15:39:40.198Z,9.90
2019-01-22T15:40:40.079Z,10.60
2019-01-22T15:42:32.947Z,10.90
2019-01-22T15:43:32.816Z,11.60
2019-01-22T15:45:25.605Z,14.20
2019-01-22T15:46:25.458Z,13.50
2019-01-22T15:48:18.245Z,13.60
2019-01-22T15:49:18.103Z,15.20
2019-01-22T15:51:11.187Z,14.50
2019-01-22T15:52:11.052Z,14.60
2019-01-22T15:54:03.843Z,11.40
2019-01-22T15:55:03.716Z,12.00
2019-01-22T15:56:56.494Z,13.00
2019-01-22T15:57:56.362Z,13.00
2019-01-22T15:59:49.265Z,14.20
2019-01-22T16:00:49.124Z,13.70
2019-01-22T16:02:41.884Z,11.10
2019-01-22T16:03:41.766Z,11.10
2019-01-22T16:05:34.530Z,10.00
2019-01-22T16:06:34.404Z,9.30
2019-01-22T16:08:27.193Z,10.30
2019-01-22T16:09:27.114Z,10.30
2019-01-22T16:11:19.841Z,10.30
2019-01-22T16:12:19.732Z,10.90
2019-01-22T16:14:12.472Z,11.30
2019-01-22T16:15:12.345Z,11.40
2019-01-22T16:17:05.220Z,11.00
2019-01-22T16:18:05.086Z,11.70
2019-01-22T16:19:57.855Z,12.20
2019-01-22T16:20:57.752Z,11.60
2019-01-22T16:22:50.651Z,11.70
2019-01-22T16:23:50.479Z,11.50
2019-01-22T16:25:43.290Z,12.00
2019-01-22T16:26:43.144Z,11.40
2019-01-22T16:28:35.897Z,11.20
2019-01-22T16:29:35.800Z,12.50
2019-01-22T16:31:28.561Z,11.80
2019-01-22T16:32:28.446Z,11.60
2019-01-22T16:34:21.211Z,11.80
2019-01-22T16:35:21.075Z,11.30
2019-01-22T16:37:13.860Z,12.20
2019-01-22T16:38:13.726Z,12.20
2019-01-22T16:40:06.523Z,12.90
2019-01-22T16:41:06.372Z,14.50
2019-01-22T16:42:59.157Z,13.60
2019-01-22T16:43:59.022Z,16.00
2019-01-22T16:45:51.908Z,25.10
2019-01-22T16:46:51.802Z,20.90
2019-01-22T16:48:44.559Z,22.00
2019-01-22T16:49:44.418Z,22.90
2019-01-22T16:51:37.206Z,29.40
2019-01-22T16:52:37.071Z,27.10
2019-01-22T16:54:29.864Z,27.20
2019-01-22T16:55:29.716Z,23.70
2019-01-22T16:57:22.505Z,16.20
2019-01-22T16:58:22.356Z,15.80
2019-01-22T17:00:15.133Z,18.00
2019-01-22T17:01:15.003Z,18.40
2019-01-22T17:03:07.777Z,18.20
2019-01-22T17:04:07.653Z,17.70
2019-01-22T17:06:00.442Z,23.80
2019-01-22T17:07:00.298Z,21.50
2019-01-22T17:08:53.077Z,20.10
2019-01-22T17:09:52.942Z,20.50
2019-01-22T17:11:45.736Z,18.70
2019-01-22T17:12:45.588Z,18.20
2019-01-22T17:14:38.465Z,17.40
2019-01-22T17:15:38.345Z,18.10
2019-01-22T17:17:31.132Z,19.30
2019-01-22T17:18:30.996Z,19.90
2019-01-22T17:20:23.782Z,19.70
2019-01-22T17:21:23.630Z,18.20
2019-01-22T17:23:16.854Z,19.10
2019-01-22T17:24:16.281Z,19.50
2019-01-22T17:26:09.606Z,18.10
2019-01-22T17:27:09.451Z,18.40
2019-01-22T17:29:02.234Z,17.70
2019-01-22T17:30:02.096Z,18.70
2019-01-22T17:31:54.894Z,18.90
2019-01-22T17:32:54.733Z,17.90
2019-01-22T17:34:47.628Z,19.30
2019-01-22T17:35:47.480Z,17.80
2019-01-22T17:37:40.264Z,17.50
2019-01-22T17:38:40.131Z,17.60
2019-01-22T17:40:32.917Z,16.80
2019-01-22T17:41:32.787Z,16.00
2019-01-22T17:43:25.562Z,16.90
2019-01-22T17:44:25.429Z,16.50
2019-01-22T17:46:18.217Z,15.60
2019-01-22T17:47:18.073Z,16.50
2019-01-22T17:49:10.857Z,18.80
2019-01-22T17:50:11.096Z,21.60
2019-01-22T17:52:03.500Z,17.20
2019-01-22T17:53:07.507Z,16.40
2019-01-22T17:54:56.259Z,16.40
2019-01-22T17:55:56.134Z,17.00
2019-01-22T17:57:48.921Z,16.60
2019-01-22T17:58:48.779Z,18.30
2019-01-22T18:00:41.694Z,20.40
2019-01-22T18:01:41.511Z,20.20
2019-01-22T18:03:34.307Z,22.90
2019-01-22T18:04:34.163Z,21.20
2019-01-22T18:06:26.948Z,22.30
2019-01-22T18:07:26.808Z,22.30
2019-01-22T18:09:19.690Z,20.70
2019-01-22T18:10:19.556Z,25.00
2019-01-22T18:12:12.356Z,24.90
2019-01-22T18:13:12.211Z,24.40
2019-01-22T18:15:05.097Z,23.90
2019-01-22T18:16:04.950Z,23.20
2019-01-22T18:17:58.263Z,22.00
2019-01-22T18:18:58.118Z,22.40
2019-01-22T18:20:50.999Z,20.20
2019-01-22T18:21:50.863Z,20.40
2019-01-22T18:23:43.763Z,20.80
2019-01-22T18:24:43.630Z,23.30
2019-01-22T18:26:36.425Z,28.90
2019-01-22T18:27:36.264Z,27.00
2019-01-22T18:29:29.069Z,25.40
2019-01-22T18:30:28.915Z,24.70
2019-01-22T18:32:21.808Z,25.50
2019-01-22T18:33:21.653Z,26.10
2019-01-22T18:35:14.537Z,22.20
2019-01-22T18:36:14.403Z,22.60
2019-01-22T18:38:07.185Z,22.00
2019-01-22T18:39:07.062Z,23.30
2019-01-22T18:40:59.886Z,23.90
2019-01-22T18:41:59.724Z,22.70
2019-01-22T18:43:52.514Z,23.90
2019-01-22T18:44:52.344Z,25.20